Time;durP1;ratioP1;P1;durP2;ratioP2;P2;SDS_P1;SDS_P2;PMS_P1;PMS_P2;Temp;Humidity;BMP_temperature;BMP_pressure;BME280_temperature;BME280_humidity;BME280_pressure;Samples;Min_cycle;Max_cycle;Signal;HPM_P1;HPM_P2
2019/11/26 00:02:09;;;;;;;12.9;9.4;;;;;;;;;;;;;
2019/11/26 00:04:37;;;;;;;15.5;10.3;;;;;;;;;;;;;
2019/11/26 00:08:41;;;;;;;20.8;14.5;;;;;;;;;;;;;
2019/11/26 00:11:04;;;;;;;12.2;8.5;;;;;;;;;;;;;
2019/11/26 00:13:30;;;;;;;11.1;8.4;;;;;;;;;;;;;
2019/11/26 00:15:54;;;;;;;11.9;7.7;;;;;;;;;;;;;
2019/11/26 00:18:24;;;;;;;10.8;7.3;;;;;;;;;;;;;
2019/11/26 00:20:45;;;;;;;9.1;6.6;;;;;;;;;;;;;
2019/11/26 00:23:11;;;;;;;8.3;6.3;;;;;;;;;;;;;
2019/11/26 00:25:35;;;;;;;9.6;6.3;;;;;;;;;;;;;
2019/11/26 00:28:06;;;;;;;8.7;6.6;;;;;;;;;;;;;
2019/11/26 00:30:27;;;;;;;8.6;5.6;;;;;;;;;;;;;
2019/11/26 00:32:52;;;;;;;7;5.9;;;;;;;;;;;;;
2019/11/26 00:35:17;;;;;;;10.3;6.1;;;;;;;;;;;;;
2019/11/26 00:37:42;;;;;;;6.7;5.4;;;;;;;;;;;;;
2019/11/26 00:40:13;;;;;;;7.8;5.8;;;;;;;;;;;;;
2019/11/26 00:42:40;;;;;;;8.4;5.7;;;;;;;;;;;;;
2019/11/26 00:45:06;;;;;;;8.5;6;;;;;;;;;;;;;
2019/11/26 00:47:30;;;;;;;8;6;;;;;;;;;;;;;
2019/11/26 00:52:40;;;;;;;8;5.7;;;;;;;;;;;;;
2019/11/26 00:55:05;;;;;;;9.4;6;;;;;;;;;;;;;
2019/11/26 00:57:31;;;;;;;10.8;6.4;;;;;;;;;;;;;
2019/11/26 01:00:40;;;;;;;11.9;7;;;;;;;;;;;;;
2019/11/26 01:02:58;;;;;;;9.3;6.4;;;;;;;;;;;;;
2019/11/26 01:05:41;;;;;;;10.5;6.9;;;;;;;;;;;;;
2019/11/26 01:08:00;;;;;;;12.7;7.1;;;;;;;;;;;;;
2019/11/26 01:10:24;;;;;;;9.7;6.4;;;;;;;;;;;;;
2019/11/26 01:12:47;;;;;;;9.2;6.8;;;;;;;;;;;;;
2019/11/26 01:15:20;;;;;;;9;6.3;;;;;;;;;;;;;
2019/11/26 01:17:44;;;;;;;10.7;6.2;;;;;;;;;;;;;
2019/11/26 01:20:13;;;;;;;7.3;5.8;;;;;;;;;;;;;
2019/11/26 01:25:43;;;;;;;10.6;6.4;;;;;;;;;;;;;
2019/11/26 01:28:06;;;;;;;8;6.2;;;;;;;;;;;;;
2019/11/26 01:30:32;;;;;;;7.5;5.9;;;;;;;;;;;;;
2019/11/26 01:32:57;;;;;;;8.8;6.1;;;;;;;;;;;;;
2019/11/26 01:35:23;;;;;;;8.6;6.2;;;;;;;;;;;;;
2019/11/26 01:37:57;;;;;;;12.8;7.1;;;;;;;;;;;;;
2019/11/26 01:40:20;;;;;;;9.6;6.5;;;;;;;;;;;;;
2019/11/26 01:42:47;;;;;;;10.7;6.9;;;;;;;;;;;;;
2019/11/26 01:45:10;;;;;;;9.5;6.1;;;;;;;;;;;;;
2019/11/26 01:47:36;;;;;;;11.1;6.9;;;;;;;;;;;;;
2019/11/26 01:50:01;;;;;;;9.7;6.4;;;;;;;;;;;;;
2019/11/26 01:52:30;;;;;;;7.9;6;;;;;;;;;;;;;
2019/11/26 01:57:41;;;;;;;8.2;5.5;;;;;;;;;;;;;
2019/11/26 02:00:12;;;;;;;7.3;5.2;;;;;;;;;;;;;
2019/11/26 02:02:29;;;;;;;8.2;6.2;;;;;;;;;;;;;
2019/11/26 02:04:58;;;;;;;8.7;6.1;;;;;;;;;;;;;
2019/11/26 02:07:42;;;;;;;8.2;5.8;;;;;;;;;;;;;
2019/11/26 02:09:58;;;;;;;8.9;5.7;;;;;;;;;;;;;
2019/11/26 02:12:36;;;;;;;8;5.5;;;;;;;;;;;;;
2019/11/26 02:14:53;;;;;;;7.5;5.4;;;;;;;;;;;;;
2019/11/26 02:17:16;;;;;;;6.7;5;;;;;;;;;;;;;
2019/11/26 02:19:42;;;;;;;6.5;4.6;;;;;;;;;;;;;
2019/11/26 02:22:07;;;;;;;6.5;4.8;;;;;;;;;;;;;
2019/11/26 02:24:40;;;;;;;5.7;4.4;;;;;;;;;;;;;
2019/11/26 02:27:24;;;;;;;5.7;4.5;;;;;;;;;;;;;
2019/11/26 02:30:18;;;;;;;5.9;3.9;;;;;;;;;;;;;
2019/11/26 02:35:18;;;;;;;5.3;4.2;;;;;;;;;;;;;
2019/11/26 02:37:45;;;;;;;6.3;4.2;;;;;;;;;;;;;
2019/11/26 02:40:10;;;;;;;5;4.1;;;;;;;;;;;;;
2019/11/26 02:42:47;;;;;;;5.7;4.1;;;;;;;;;;;;;
2019/11/26 02:45:02;;;;;;;6.1;3.8;;;;;;;;;;;;;
2019/11/26 02:47:27;;;;;;;4.9;3.6;;;;;;;;;;;;;
2019/11/26 02:53:18;;;;;;;7.1;5.2;;;;;;;;;;;;;
2019/11/26 02:54:45;;;;;;;5.9;4.6;;;;;;;;;;;;;
2019/11/26 02:57:14;;;;;;;6.5;4.6;;;;;;;;;;;;;
2019/11/26 02:59:42;;;;;;;6.5;4.4;;;;;;;;;;;;;
2019/11/26 03:02:08;;;;;;;5.6;4.4;;;;;;;;;;;;;
2019/11/26 03:04:41;;;;;;;8;5.3;;;;;;;;;;;;;
2019/11/26 03:07:04;;;;;;;10.6;6.4;;;;;;;;;;;;;
2019/11/26 03:09:30;;;;;;;9.7;6;;;;;;;;;;;;;
2019/11/26 03:11:59;;;;;;;7.2;4.7;;;;;;;;;;;;;
2019/11/26 03:15:35;;;;;;;7.8;5.4;;;;;;;;;;;;;
2019/11/26 03:18:01;;;;;;;4.6;3.9;;;;;;;;;;;;;
2019/11/26 03:20:29;;;;;;;5.8;4.3;;;;;;;;;;;;;
2019/11/26 03:22:57;;;;;;;6.7;4.4;;;;;;;;;;;;;
2019/11/26 03:25:24;;;;;;;5.8;4.3;;;;;;;;;;;;;
2019/11/26 03:27:52;;;;;;;7.7;4.1;;;;;;;;;;;;;
2019/11/26 03:32:43;;;;;;;5;4.2;;;;;;;;;;;;;
2019/11/26 03:35:09;;;;;;;5.1;3.7;;;;;;;;;;;;;
2019/11/26 03:37:34;;;;;;;5.2;3.4;;;;;;;;;;;;;
2019/11/26 03:40:00;;;;;;;6.3;3.8;;;;;;;;;;;;;
2019/11/26 03:42:26;;;;;;;5;3.6;;;;;;;;;;;;;
2019/11/26 03:44:50;;;;;;;5.7;3.9;;;;;;;;;;;;;
2019/11/26 03:47:19;;;;;;;5.6;4.2;;;;;;;;;;;;;
2019/11/26 03:49:43;;;;;;;4.4;3.2;;;;;;;;;;;;;
2019/11/26 03:52:41;;;;;;;3.8;3.3;;;;;;;;;;;;;
2019/11/26 03:54:55;;;;;;;4.4;3.4;;;;;;;;;;;;;
2019/11/26 03:57:05;;;;;;;4.3;3.4;;;;;;;;;;;;;
2019/11/26 03:59:26;;;;;;;4.2;3.4;;;;;;;;;;;;;
2019/11/26 04:02:44;;;;;;;5.5;3.7;;;;;;;4.25;89.95898;931.6685;;;;
2019/11/26 04:05:44;;;;;;;5.4;3.7;;;;;;;4.42;89.49805;931.6937;;;;
2019/11/26 04:08:15;;;;;;;4.9;3.7;;;;;;;4.47;89.33984;931.5701;;;;
2019/11/26 04:10:41;;;;;;;4.7;3.3;;;;;;;4.5;89.3125;931.5093;;;;
2019/11/26 04:13:22;;;;;;;4.6;3.4;;;;;;;4.7;88.63281;931.5515;;;;
2019/11/26 04:15:49;;;;;;;4.7;3.4;;;;;;;4.89;87.93066;931.6085;;;;
2019/11/26 04:18:21;;;;;;;5.8;3.5;;;;;;;5.09;87.23438;931.6149;;;;
2019/11/26 04:20:55;;;;;;;5.2;3.3;;;;;;;5.22;86.28125;931.6925;;;;
2019/11/26 04:23:34;;;;;;;4.9;3.2;;;;;;;5.24;86.14941;931.7411;;;;
2019/11/26 04:26:07;;;;;;;4.8;3.2;;;;;;;5.3;85.81445;931.7375;;;;
2019/11/26 04:28:32;;;;;;;4;3.3;;;;;;;5.37;85.64648;931.7908;;;;
2019/11/26 04:31:04;;;;;;;4.3;3.3;;;;;;;5.44;85.25488;931.805;;;;
2019/11/26 04:33:29;;;;;;;5.4;3.3;;;;;;;5.47;84.9668;931.7938;;;;
2019/11/26 04:36:03;;;;;;;4.1;3.2;;;;;;;5.46;84.93164;931.8552;;;;
2019/11/26 04:38:34;;;;;;;4.7;3.2;;;;;;;5.47;85.27148;931.8354;;;;
2019/11/26 04:41:06;;;;;;;3.7;3;;;;;;;5.49;85.16211;931.8123;;;;
2019/11/26 04:43:48;;;;;;;5.1;3.2;;;;;;;5.48;85.32031;931.7269;;;;
2019/11/26 04:46:28;;;;;;;3.9;3.1;;;;;;;5.51;85.11133;931.7715;;;;
2019/11/26 04:48:55;;;;;;;4.2;3.3;;;;;;;5.52;85.29395;931.6761;;;;
2019/11/26 04:51:37;;;;;;;4.8;3.5;;;;;;;5.58;85.13672;931.6599;;;;
2019/11/26 04:54:11;;;;;;;4.7;3.4;;;;;;;5.62;85.04297;931.6111;;;;
2019/11/26 04:56:30;;;;;;;5.4;3.6;;;;;;;5.63;85.08984;931.7053;;;;
2019/11/26 04:58:59;;;;;;;5.5;3.1;;;;;;;5.67;84.46484;931.6166;;;;
2019/11/26 05:01:30;;;;;;;4.2;3.4;;;;;;;5.58;84.77441;931.7095;;;;
2019/11/26 05:04:08;;;;;;;5.1;3.3;;;;;;;5.49;85.26367;931.7711;;;;
2019/11/26 05:06:37;;;;;;;4.9;3.5;;;;;;;5.19;86.82813;931.7258;;;;
2019/11/26 05:11:30;;;;;;;5.2;3.8;;;;;;;5.31;86.78613;931.8315;;;;
2019/11/26 05:14:04;;;;;;;5.9;4.6;;;;;;;5.37;86.48145;931.843;;;;
2019/11/26 05:16:44;;;;;;;7.3;4.8;;;;;;;5.34;86.53027;931.8463;;;;
2019/11/26 05:19:08;;;;;;;6.2;4.7;;;;;;;5.28;86.9707;931.7828;;;;
2019/11/26 05:24:19;;;;;;;7.6;5.5;;;;;;;5.38;86.7334;931.7067;;;;
2019/11/26 05:27:28;;;;;;;8;5;;;;;;;5.46;86.38672;931.7453;;;;
2019/11/26 05:30:24;;;;;;;10.7;7.9;;;;;;;5.53;86.31152;931.6495;;;;
2019/11/26 05:32:55;;;;;;;7.8;6.1;;;;;;;5.62;85.90039;931.7034;;;;
2019/11/26 05:35:21;;;;;;;7.6;5.1;;;;;;;5.51;86.47656;931.7597;;;;
2019/11/26 05:37:48;;;;;;;5.4;4.7;;;;;;;5.48;86.74219;931.8469;;;;
2019/11/26 05:40:23;;;;;;;7.2;5.5;;;;;;;5.43;87.05859;931.823;;;;
2019/11/26 05:42:54;;;;;;;7;6.2;;;;;;;5.41;87.16602;931.8044;;;;
2019/11/26 05:45:30;;;;;;;6.3;5.7;;;;;;;5.28;87.82813;931.7868;;;;
2019/11/26 05:48:04;;;;;;;7.9;5.7;;;;;;;5.09;89.27734;931.745;;;;
2019/11/26 05:51:13;;;;;;;7;5.3;;;;;;;5.06;89.63184;931.81;;;;
2019/11/26 05:56:03;;;;;;;5.9;4.8;;;;;;;5.37;88.53516;931.8856;;;;
2019/11/26 05:58:33;;;;;;;5.9;4.1;;;;;;;5.28;88.29199;931.8318;;;;
2019/11/26 06:02:19;;;;;;;5.4;3.9;;;;;;;5.37;88.32031;931.85;;;;
2019/11/26 06:06:39;;;;;;;4.6;3.7;;;;;;;5.36;87.87891;931.9075;;;;
2019/11/26 06:09:03;;;;;;;3.6;2.9;;;;;;;5.33;87.83887;931.8666;;;;
2019/11/26 06:11:34;;;;;;;4.4;3.3;;;;;;;5.47;87.65234;931.8719;;;;
2019/11/26 06:14:12;;;;;;;5.5;4.9;;;;;;;5.57;87.54883;931.8697;;;;
2019/11/26 06:16:42;;;;;;;6.1;4.5;;;;;;;5.7;86.73926;931.9203;;;;
2019/11/26 06:19:13;;;;;;;7.4;4.8;;;;;;;5.42;87.7207;931.9144;;;;
2019/11/26 06:21:48;;;;;;;7.7;5;;;;;;;5.53;88.03809;931.8904;;;;
2019/11/26 06:24:22;;;;;;;6.7;4.8;;;;;;;5.69;87.08789;931.8917;;;;
2019/11/26 06:26:49;;;;;;;4.7;4.1;;;;;;;5.79;86.6123;931.9053;;;;
2019/11/26 06:29:19;;;;;;;4.7;3.8;;;;;;;5.89;85.97559;931.8978;;;;
2019/11/26 06:31:45;;;;;;;6.8;4.3;;;;;;;5.85;85.99121;931.9327;;;;
2019/11/26 06:34:13;;;;;;;5.5;4;;;;;;;5.88;86.09961;931.9641;;;;
2019/11/26 06:36:39;;;;;;;11.4;6.2;;;;;;;5.92;86.05078;931.8575;;;;
2019/11/26 06:39:11;;;;;;;12.1;7.6;;;;;;;6;85.99902;931.9387;;;;
2019/11/26 06:41:43;;;;;;;9;6;;;;;;;6.05;85.72559;931.9105;;;;
2019/11/26 06:44:07;;;;;;;8;4.5;;;;;;;6.07;85.86523;931.9067;;;;
2019/11/26 06:46:45;;;;;;;6.2;4.2;;;;;;;6.04;86.34766;931.8811;;;;
2019/11/26 06:49:30;;;;;;;6.3;4.5;;;;;;;6.08;86.45605;931.8494;;;;
2019/11/26 06:51:47;;;;;;;6.4;4.2;;;;;;;6.17;86.39551;931.9203;;;;
2019/11/26 06:54:15;;;;;;;9.8;4.7;;;;;;;6.28;85.86328;931.856;;;;
2019/11/26 06:56:45;;;;;;;6.6;4.2;;;;;;;6.37;85.79297;931.8209;;;;
2019/11/26 06:59:08;;;;;;;4.9;3.3;;;;;;;6.42;85.90332;931.9191;;;;
2019/11/26 07:01:40;;;;;;;5.6;4.7;;;;;;;6.5;85.6582;931.9067;;;;
2019/11/26 07:04:15;;;;;;;6.3;4.5;;;;;;;6.53;85.56348;931.8677;;;;
2019/11/26 07:07:10;;;;;;;5.7;4.1;;;;;;;6.53;85.9707;931.8644;;;;
2019/11/26 07:09:19;;;;;;;7.2;5.1;;;;;;;6.51;86.20508;931.7955;;;;
2019/11/26 07:11:46;;;;;;;7.9;6.1;;;;;;;6.5;85.93164;931.762;;;;
2019/11/26 07:14:07;;;;;;;10.8;7.5;;;;;;;6.47;85.98242;931.7031;;;;
2019/11/26 07:16:39;;;;;;;14.5;10.9;;;;;;;6.35;86.5;931.7478;;;;
2019/11/26 07:19:05;;;;;;;18.9;11.6;;;;;;;6.25;86.51367;931.7408;;;;
2019/11/26 07:21:34;;;;;;;10.7;7;;;;;;;6.1;86.81055;931.6931;;;;
2019/11/26 07:24:06;;;;;;;5.8;4.6;;;;;;;5.97;87.47363;931.7241;;;;
2019/11/26 07:26:33;;;;;;;8.6;6;;;;;;;6.07;87.3252;931.7512;;;;
2019/11/26 07:29:04;;;;;;;8.4;5.4;;;;;;;6.19;86.91895;931.6811;;;;
2019/11/26 07:31:34;;;;;;;9.2;5;;;;;;;6.22;86.32715;931.663;;;;
2019/11/26 07:33:58;;;;;;;9.2;4.5;;;;;;;6.22;86.4502;931.7174;;;;
2019/11/26 07:36:23;;;;;;;12.5;4.9;;;;;;;6.27;87.72559;931.7378;;;;
2019/11/26 07:38:52;;;;;;;7.4;4.6;;;;;;;6.47;86.64844;931.7656;;;;
2019/11/26 07:41:17;;;;;;;6.2;4.3;;;;;;;6.66;86.17676;931.7914;;;;
2019/11/26 07:43:42;;;;;;;5.9;4;;;;;;;6.75;85.26758;931.7514;;;;
2019/11/26 07:46:12;;;;;;;6.1;4.4;;;;;;;6.8;84.86914;931.7315;;;;
2019/11/26 07:48:38;;;;;;;9;5.9;;;;;;;;;;;;;
2019/11/26 07:51:09;;;;;;;9.9;6;;;;;;;;;;;;;
2019/11/26 07:53:35;;;;;;;8.3;5.4;;;;;;;;;;;;;
2019/11/26 07:56:02;;;;;;;7.3;5.4;;;;;;;;;;;;;
2019/11/26 07:58:28;;;;;;;8.3;5.1;;;;;;;;;;;;;
2019/11/26 08:00:55;;;;;;;7.6;4.3;;;;;;;;;;;;;
2019/11/26 08:03:17;;;;;;;6.7;3.9;;;;;;;;;;;;;
2019/11/26 08:05:45;;;;;;;5.8;3.7;;;;;;;;;;;;;
2019/11/26 08:08:15;;;;;;;5.2;3.7;;;;;;;;;;;;;
2019/11/26 08:13:02;;;;;;;6.2;3.6;;;;;;;;;;;;;
2019/11/26 08:15:26;;;;;;;13.4;4.4;;;;;;;;;;;;;
2019/11/26 08:17:58;;;;;;;6.3;3.2;;;;;;;;;;;;;
2019/11/26 08:20:23;;;;;;;2.6;2.1;;;;;;;;;;;;;
2019/11/26 08:22:50;;;;;;;6.2;2.3;;;;;;;;;;;;;
2019/11/26 08:25:13;;;;;;;4.8;2.4;;;;;;;;;;;;;
2019/11/26 08:27:38;;;;;;;4.5;2.4;;;;;;;;;;;;;
2019/11/26 08:30:03;;;;;;;3.6;2.1;;;;;;;;;;;;;
2019/11/26 08:33:26;;;;;;;4.9;2.1;;;;;;;;;;;;;
2019/11/26 08:35:48;;;;;;;3.8;1.7;;;;;;;;;;;;;
2019/11/26 08:38:16;;;;;;;3;1.8;;;;;;;;;;;;;
2019/11/26 08:40:39;;;;;;;5.6;2.3;;;;;;;;;;;;;
2019/11/26 08:43:05;;;;;;;2.4;1.9;;;;;;;;;;;;;
2019/11/26 08:45:29;;;;;;;10.3;4.5;;;;;;;;;;;;;
2019/11/26 08:47:54;;;;;;;9.5;4.2;;;;;;;;;;;;;
2019/11/26 08:50:25;;;;;;;10.1;4.1;;;;;;;;;;;;;
2019/11/26 08:52:48;;;;;;;8.7;4.3;;;;;;;;;;;;;
2019/11/26 08:55:29;;;;;;;7.5;3.9;;;;;;;;;;;;;
2019/11/26 08:57:41;;;;;;;5.9;3.1;;;;;;;;;;;;;
2019/11/26 09:00:13;;;;;;;8.4;3.8;;;;;;;;;;;;;
2019/11/26 09:02:38;;;;;;;6.7;3.9;;;;;;;;;;;;;
2019/11/26 09:05:03;;;;;;;5.8;3.8;;;;;;;;;;;;;
2019/11/26 09:07:40;;;;;;;4.8;3.2;;;;;;;;;;;;;
2019/11/26 09:09:58;;;;;;;7.2;3.1;;;;;;;;;;;;;
2019/11/26 09:12:26;;;;;;;3.5;1.9;;;;;;;;;;;;;
2019/11/26 09:14:53;;;;;;;7.1;2.3;;;;;;;;;;;;;
2019/11/26 09:17:21;;;;;;;5.8;2.5;;;;;;;;;;;;;
2019/11/26 09:19:45;;;;;;;6.5;2.3;;;;;;;;;;;;;
2019/11/26 09:22:10;;;;;;;5.7;2.5;;;;;;;;;;;;;
2019/11/26 09:24:37;;;;;;;5.6;2.4;;;;;;;;;;;;;
2019/11/26 09:27:03;;;;;;;4.6;2.3;;;;;;;;;;;;;
2019/11/26 09:29:28;;;;;;;6.5;2.8;;;;;;;;;;;;;
2019/11/26 09:31:57;;;;;;;6.1;2.6;;;;;;;;;;;;;
2019/11/26 09:34:23;;;;;;;5;2.6;;;;;;;;;;;;;
2019/11/26 09:36:48;;;;;;;6.1;2.2;;;;;;;;;;;;;
2019/11/26 09:39:20;;;;;;;5.5;2.2;;;;;;;;;;;;;
2019/11/26 09:41:47;;;;;;;4.7;2.2;;;;;;;;;;;;;
2019/11/26 09:44:14;;;;;;;3.8;2;;;;;;;;;;;;;
2019/11/26 09:46:45;;;;;;;3.8;2.3;;;;;;;;;;;;;
2019/11/26 09:49:16;;;;;;;4.6;2.1;;;;;;;;;;;;;
2019/11/26 09:51:40;;;;;;;3.8;2.3;;;;;;;;;;;;;
2019/11/26 09:54:04;;;;;;;3.6;2.2;;;;;;;;;;;;;
2019/11/26 09:56:29;;;;;;;5.5;2.3;;;;;;;;;;;;;
2019/11/26 09:58:56;;;;;;;6.1;2.3;;;;;;;;;;;;;
2019/11/26 10:01:21;;;;;;;4.5;2;;;;;;;;;;;;;
2019/11/26 10:03:45;;;;;;;18;3;;;;;;;;;;;;;
2019/11/26 10:06:11;;;;;;;9.4;2.5;;;;;;;;;;;;;
2019/11/26 10:08:37;;;;;;;7.8;2.2;;;;;;;;;;;;;
2019/11/26 10:11:03;;;;;;;2.8;1.7;;;;;;;;;;;;;
2019/11/26 10:13:26;;;;;;;3.7;2.4;;;;;;;;;;;;;
2019/11/26 10:15:56;;;;;;;7.2;2.7;;;;;;;;;;;;;
2019/11/26 10:18:17;;;;;;;4.6;2.6;;;;;;;;;;;;;
2019/11/26 10:20:46;;;;;;;3.9;2.4;;;;;;;;;;;;;
2019/11/26 10:23:16;;;;;;;4.7;2.4;;;;;;;;;;;;;
2019/11/26 10:25:51;;;;;;;5.1;2.6;;;;;;;;;;;;;
2019/11/26 10:28:20;;;;;;;9;2.3;;;;;;;;;;;;;
2019/11/26 10:30:44;;;;;;;7.6;2.5;;;;;;;;;;;;;
2019/11/26 10:33:09;;;;;;;4.4;2.5;;;;;;;;;;;;;
2019/11/26 10:35:33;;;;;;;11.1;4.4;;;;;;;;;;;;;
2019/11/26 10:38:16;;;;;;;12.7;3.5;;;;;;;;;;;;;
2019/11/26 10:40:41;;;;;;;4.6;2;;;;;;;;;;;;;
2019/11/26 10:43:07;;;;;;;8.7;2.3;;;;;;;;;;;;;
2019/11/26 10:45:52;;;;;;;5.1;1.8;;;;;;;;;;;;;
2019/11/26 10:48:05;;;;;;;7.6;2.6;;;;;;;;;;;;;
2019/11/26 10:50:46;;;;;;;4.4;2.3;;;;;;;;;;;;;
2019/11/26 10:53:12;;;;;;;8.7;2;;;;;;;;;;;;;
2019/11/26 10:55:24;;;;;;;4.1;2.1;;;;;;;;;;;;;
2019/11/26 10:57:49;;;;;;;3.4;2.1;;;;;;;;;;;;;
2019/11/26 11:00:16;;;;;;;3.6;2.3;;;;;;;;;;;;;
2019/11/26 11:02:41;;;;;;;8.1;2.5;;;;;;;;;;;;;
2019/11/26 11:05:06;;;;;;;12.9;3;;;;;;;;;;;;;
2019/11/26 11:07:31;;;;;;;6.8;2.3;;;;;;;;;;;;;
2019/11/26 11:09:58;;;;;;;3.6;2;;;;;;;;;;;;;
2019/11/26 11:12:23;;;;;;;7.1;2.4;;;;;;;;;;;;;
2019/11/26 11:14:48;;;;;;;15.4;3.2;;;;;;;;;;;;;
2019/11/26 11:17:17;;;;;;;6;2.6;;;;;;;;;;;;;
2019/11/26 11:19:41;;;;;;;6.6;2.5;;;;;;;;;;;;;
2019/11/26 11:22:04;;;;;;;3.7;2.1;;;;;;;;;;;;;
2019/11/26 11:24:30;;;;;;;3.9;2.1;;;;;;;;;;;;;
2019/11/26 11:26:56;;;;;;;4.6;2.1;;;;;;;;;;;;;
2019/11/26 11:29:25;;;;;;;3;2.3;;;;;;;;;;;;;
2019/11/26 11:34:29;;;;;;;6;2.6;;;;;;;;;;;;;
2019/11/26 11:36:54;;;;;;;4.1;2.4;;;;;;;;;;;;;
2019/11/26 11:39:20;;;;;;;4.9;2.7;;;;;;;;;;;;;
2019/11/26 11:41:50;;;;;;;4.8;2.5;;;;;;;;;;;;;
2019/11/26 11:44:10;;;;;;;5.7;2.7;;;;;;;;;;;;;
2019/11/26 11:46:35;;;;;;;5.5;2.8;;;;;;;;;;;;;
2019/11/26 11:49:01;;;;;;;3.8;2.6;;;;;;;;;;;;;
2019/11/26 11:51:31;;;;;;;4.3;2.3;;;;;;;;;;;;;
2019/11/26 11:53:56;;;;;;;3.1;2.4;;;;;;;;;;;;;
2019/11/26 11:56:49;;;;;;;3.7;2.4;;;;;;;;;;;;;
2019/11/26 11:59:12;;;;;;;3.4;2.5;;;;;;;;;;;;;
2019/11/26 12:01:36;;;;;;;4.1;2.6;;;;;;;;;;;;;
2019/11/26 12:04:04;;;;;;;3.3;2.4;;;;;;;;;;;;;
2019/11/26 12:06:28;;;;;;;4.9;2.9;;;;;;;;;;;;;
2019/11/26 12:08:54;;;;;;;4.8;2.8;;;;;;;;;;;;;
2019/11/26 12:11:20;;;;;;;4.5;2.8;;;;;;;;;;;;;
2019/11/26 12:13:46;;;;;;;4;2.7;;;;;;;;;;;;;
2019/11/26 12:16:11;;;;;;;4.9;2.7;;;;;;;;;;;;;
2019/11/26 12:18:44;;;;;;;2.9;2.5;;;;;;;;;;;;;
2019/11/26 12:21:08;;;;;;;4.4;2.7;;;;;;;;;;;;;
2019/11/26 12:23:32;;;;;;;4.9;2.7;;;;;;;;;;;;;
2019/11/26 12:25:58;;;;;;;4.7;3.1;;;;;;;;;;;;;
2019/11/26 12:28:25;;;;;;;3.8;2.9;;;;;;;;;;;;;
2019/11/26 12:30:49;;;;;;;4.4;3.3;;;;;;;;;;;;;
2019/11/26 12:33:13;;;;;;;5.1;3.1;;;;;;;;;;;;;
2019/11/26 12:35:42;;;;;;;4.2;3.1;;;;;;;;;;;;;
2019/11/26 12:38:08;;;;;;;4.9;3;;;;;;;;;;;;;
2019/11/26 12:40:34;;;;;;;4.6;3.2;;;;;;;;;;;;;
2019/11/26 12:44:04;;;;;;;4.4;3.1;;;;;;;;;;;;;
2019/11/26 12:45:38;;;;;;;5.7;3.3;;;;;;;;;;;;;
2019/11/26 12:47:49;;;;;;;5.6;3.3;;;;;;;;;;;;;
2019/11/26 12:50:13;;;;;;;6;3.4;;;;;;;;;;;;;
2019/11/26 12:52:38;;;;;;;6.1;3.3;;;;;;;;;;;;;
2019/11/26 12:55:02;;;;;;;5.1;3.2;;;;;;;;;;;;;
2019/11/26 12:57:31;;;;;;;5.9;3.6;;;;;;;;;;;;;
2019/11/26 12:59:55;;;;;;;6;3.8;;;;;;;;;;;;;
2019/11/26 13:02:19;;;;;;;5.2;3.6;;;;;;;;;;;;;
2019/11/26 13:04:47;;;;;;;5.5;3.5;;;;;;;;;;;;;
2019/11/26 13:07:13;;;;;;;5.8;3.9;;;;;;;;;;;;;
2019/11/26 13:09:38;;;;;;;8.8;4.5;;;;;;;;;;;;;
2019/11/26 13:12:03;;;;;;;4.9;4.1;;;;;;;;;;;;;
2019/11/26 13:14:31;;;;;;;5.8;4.1;;;;;;;;;;;;;
2019/11/26 13:17:32;;;;;;;6.2;4.1;;;;;;;;;;;;;
2019/11/26 13:19:59;;;;;;;5.5;4.1;;;;;;;;;;;;;
2019/11/26 13:22:29;;;;;;;6.6;4.1;;;;;;;;;;;;;
2019/11/26 13:24:53;;;;;;;7.8;4.4;;;;;;;;;;;;;
2019/11/26 13:27:23;;;;;;;5.3;3.9;;;;;;;;;;;;;
2019/11/26 13:29:45;;;;;;;5.3;4.1;;;;;;;;;;;;;
2019/11/26 13:32:24;;;;;;;6.2;4.2;;;;;;;;;;;;;
2019/11/26 13:35:06;;;;;;;6;4.4;;;;;;;;;;;;;
2019/11/26 13:37:28;;;;;;;6.4;4.1;;;;;;;;;;;;;
2019/11/26 13:40:02;;;;;;;6.5;4.1;;;;;;;;;;;;;
2019/11/26 13:42:31;;;;;;;6.4;4.4;;;;;;;;;;;;;
2019/11/26 13:44:54;;;;;;;7.6;4.5;;;;;;;;;;;;;
2019/11/26 13:47:22;;;;;;;5.4;4.1;;;;;;;;;;;;;
2019/11/26 13:49:51;;;;;;;6.1;4.2;;;;;;;;;;;;;
2019/11/26 13:52:16;;;;;;;6.6;4;;;;;;;;;;;;;
2019/11/26 13:54:51;;;;;;;6.9;4.1;;;;;;;;;;;;;
2019/11/26 13:57:16;;;;;;;5.1;4.3;;;;;;;;;;;;;
2019/11/26 13:59:43;;;;;;;7.1;4.6;;;;;;;;;;;;;
2019/11/26 14:02:13;;;;;;;6.4;4.7;;;;;;;;;;;;;
2019/11/26 14:04:40;;;;;;;6.7;4.8;;;;;;;;;;;;;
2019/11/26 14:07:04;;;;;;;5.5;4.5;;;;;;;;;;;;;
2019/11/26 14:09:30;;;;;;;5.8;4.7;;;;;;;;;;;;;
2019/11/26 14:11:55;;;;;;;7.4;4.8;;;;;;;;;;;;;
2019/11/26 14:14:22;;;;;;;10.9;4.6;;;;;;;;;;;;;
2019/11/26 14:16:51;;;;;;;6.3;4.8;;;;;;;;;;;;;
2019/11/26 14:19:16;;;;;;;8.2;4.6;;;;;;;;;;;;;
2019/11/26 14:21:44;;;;;;;8;4.9;;;;;;;;;;;;;
2019/11/26 14:24:29;;;;;;;12.7;5.1;;;;;;;;;;;;;
2019/11/26 14:26:56;;;;;;;11.1;5.2;;;;;;;;;;;;;
2019/11/26 14:29:19;;;;;;;9.6;5.3;;;;;;;;;;;;;
2019/11/26 14:31:47;;;;;;;20;5.9;;;;;;;;;;;;;
2019/11/26 14:34:15;;;;;;;16.3;7;;;;;;;;;;;;;
2019/11/26 14:36:37;;;;;;;22;6.9;;;;;;;;;;;;;
2019/11/26 14:39:05;;;;;;;20.6;6.8;;;;;;;;;;;;;
2019/11/26 14:41:32;;;;;;;15.5;6.2;;;;;;;;;;;;;
2019/11/26 14:43:53;;;;;;;12.3;5.7;;;;;;;;;;;;;
2019/11/26 14:46:19;;;;;;;22.2;5.9;;;;;;;;;;;;;
2019/11/26 14:48:57;;;;;;;16.9;6.8;;;;;;;;;;;;;
2019/11/26 14:51:30;;;;;;;11.4;6.2;;;;;;;;;;;;;
2019/11/26 14:53:58;;;;;;;11.9;6.3;;;;;;;;;;;;;
2019/11/26 14:56:25;;;;;;;18.9;6.8;;;;;;;;;;;;;
2019/11/26 14:58:49;;;;;;;19.1;9;;;;;;;;;;;;;
2019/11/26 15:01:16;;;;;;;34.1;9.5;;;;;;;;;;;;;
2019/11/26 15:03:54;;;;;;;37;9.8;;;;;;;;;;;;;
2019/11/26 15:06:16;;;;;;;25.3;9.6;;;;;;;;;;;;;
2019/11/26 15:08:49;;;;;;;28.2;8.2;;;;;;;;;;;;;
2019/11/26 15:11:25;;;;;;;17.6;7;;;;;;;;;;;;;
2019/11/26 15:13:48;;;;;;;20.9;7.9;;;;;;;;;;;;;
2019/11/26 15:16:12;;;;;;;23.2;8.4;;;;;;;;;;;;;
2019/11/26 15:18:52;;;;;;;28.5;8.6;;;;;;;;;;;;;
2019/11/26 15:21:27;;;;;;;29.2;8.8;;;;;;;;;;;;;
2019/11/26 15:23:49;;;;;;;22.5;8.4;;;;;;;;;;;;;
2019/11/26 15:26:17;;;;;;;14.2;6.3;;;;;;;;;;;;;
2019/11/26 15:28:40;;;;;;;17.2;4.6;;;;;;;;;;;;;
2019/11/26 15:31:11;;;;;;;11;4.9;;;;;;;;;;;;;
2019/11/26 15:33:35;;;;;;;14.5;6.2;;;;;;;;;;;;;
2019/11/26 15:36:04;;;;;;;13.2;5.3;;;;;;;;;;;;;
2019/11/26 15:38:52;;;;;;;12.9;4.2;;;;;;;;;;;;;
2019/11/26 15:41:00;;;;;;;9.1;3.4;;;;;;;;;;;;;
2019/11/26 15:43:19;;;;;;;11.3;3.8;;;;;;;;;;;;;
2019/11/26 15:45:45;;;;;;;10.6;3.8;;;;;;;;;;;;;
2019/11/26 15:48:11;;;;;;;10;4.6;;;;;;;;;;;;;
2019/11/26 15:50:40;;;;;;;8.9;4.2;;;;;;;;;;;;;
2019/11/26 15:53:07;;;;;;;8.1;4.6;;;;;;;;;;;;;
2019/11/26 15:55:34;;;;;;;13.2;5.4;;;;;;;;;;;;;
2019/11/26 15:57:59;;;;;;;13.4;8.1;;;;;;;;;;;;;
2019/11/26 16:00:27;;;;;;;27.7;17.1;;;;;;;;;;;;;
2019/11/26 16:02:54;;;;;;;36.4;19.5;;;;;;;;;;;;;
2019/11/26 16:05:16;;;;;;;36.5;21.7;;;;;;;;;;;;;
2019/11/26 16:07:46;;;;;;;32.8;19.3;;;;;;;;;;;;;
2019/11/26 16:10:12;;;;;;;23.8;15.2;;;;;;;;;;;;;
2019/11/26 16:12:40;;;;;;;25;14.5;;;;;;;;;;;;;
2019/11/26 16:15:03;;;;;;;19.6;12.4;;;;;;;;;;;;;
2019/11/26 16:17:30;;;;;;;19.3;12.5;;;;;;;;;;;;;
2019/11/26 16:19:58;;;;;;;20.7;12.6;;;;;;;;;;;;;
2019/11/26 16:22:21;;;;;;;21.4;12.2;;;;;;;;;;;;;
2019/11/26 16:24:48;;;;;;;22.7;12.8;;;;;;;;;;;;;
2019/11/26 16:27:17;;;;;;;19.6;11.8;;;;;;;;;;;;;
2019/11/26 16:29:39;;;;;;;22;12.9;;;;;;;;;;;;;
2019/11/26 16:32:05;;;;;;;19;11.8;;;;;;;;;;;;;
2019/11/26 16:34:33;;;;;;;19.8;12.5;;;;;;;;;;;;;
2019/11/26 16:36:59;;;;;;;28.2;20.4;;;;;;;;;;;;;
2019/11/26 16:39:31;;;;;;;23.6;15.2;;;;;;;;;;;;;
2019/11/26 16:41:56;;;;;;;20.8;12.6;;;;;;;;;;;;;
2019/11/26 16:44:23;;;;;;;23.4;13.2;;;;;;;;;;;;;
2019/11/26 16:46:47;;;;;;;21.7;14.3;;;;;;;;;;;;;
2019/11/26 16:49:12;;;;;;;23.3;13.9;;;;;;;;;;;;;
2019/11/26 16:51:38;;;;;;;23;13.7;;;;;;;;;;;;;
2019/11/26 16:54:05;;;;;;;24.1;14.5;;;;;;;;;;;;;
2019/11/26 16:56:29;;;;;;;23.2;14.5;;;;;;;;;;;;;
2019/11/26 16:58:55;;;;;;;19.3;11.8;;;;;;;;;;;;;
2019/11/26 17:01:26;;;;;;;21.2;13.7;;;;;;;;;;;;;
2019/11/26 17:04:01;;;;;;;25.7;18.5;;;;;;;;;;;;;
2019/11/26 17:06:26;;;;;;;29.9;19.5;;;;;;;;;;;;;
2019/11/26 17:08:53;;;;;;;22;14.4;;;;;;;;;;;;;
2019/11/26 17:11:17;;;;;;;20.9;13.6;;;;;;;;;;;;;
2019/11/26 17:13:44;;;;;;;17.4;11.7;;;;;;;;;;;;;
2019/11/26 17:16:10;;;;;;;20.7;11.1;;;;;;;;;;;;;
2019/11/26 17:18:38;;;;;;;18.9;9.8;;;;;;;;;;;;;
2019/11/26 17:21:01;;;;;;;15.9;10;;;;;;;;;;;;;
2019/11/26 17:23:29;;;;;;;15.7;10.2;;;;;;;;;;;;;
2019/11/26 17:25:54;;;;;;;17.5;10.3;;;;;;;;;;;;;
2019/11/26 17:28:24;;;;;;;17.6;9.9;;;;;;;;;;;;;
2019/11/26 17:30:54;;;;;;;13.8;9.8;;;;;;;;;;;;;
2019/11/26 17:33:20;;;;;;;16.9;10.8;;;;;;;;;;;;;
2019/11/26 17:35:51;;;;;;;18.3;12.6;;;;;;;;;;;;;
2019/11/26 17:38:16;;;;;;;20.8;13.8;;;;;;;;;;;;;
2019/11/26 17:40:40;;;;;;;24.2;15.6;;;;;;;;;;;;;
2019/11/26 17:43:05;;;;;;;36.2;21.8;;;;;;;;;;;;;
2019/11/26 17:45:30;;;;;;;33.6;19.7;;;;;;;;;;;;;
2019/11/26 17:47:58;;;;;;;24.3;16.2;;;;;;;;;;;;;
2019/11/26 17:50:21;;;;;;;24.1;16.3;;;;;;;;;;;;;
2019/11/26 17:52:46;;;;;;;23.5;15.5;;;;;;;;;;;;;
2019/11/26 17:55:17;;;;;;;20.9;14.1;;;;;;;;;;;;;
2019/11/26 17:57:44;;;;;;;24.6;16.7;;;;;;;;;;;;;
2019/11/26 18:02:35;;;;;;;22.4;14.6;;;;;;;;;;;;;
2019/11/26 18:05:00;;;;;;;19.4;12.5;;;;;;;;;;;;;
2019/11/26 18:07:27;;;;;;;16.9;11.2;;;;;;;;;;;;;
2019/11/26 18:09:56;;;;;;;13.6;9.3;;;;;;;;;;;;;
2019/11/26 18:12:18;;;;;;;9.9;7.2;;;;;;;;;;;;;
2019/11/26 18:14:45;;;;;;;14.9;10.1;;;;;;;;;;;;;
2019/11/26 18:17:13;;;;;;;11.3;7.2;;;;;;;;;;;;;
2019/11/26 18:19:37;;;;;;;19.3;11.8;;;;;;;;;;;;;
2019/11/26 18:22:03;;;;;;;18.1;12.3;;;;;;;;;;;;;
2019/11/26 18:24:36;;;;;;;20.3;12.2;;;;;;;;;;;;;
2019/11/26 18:27:10;;;;;;;21.7;14.5;;;;;;;;;;;;;
2019/11/26 18:29:40;;;;;;;24.3;15.6;;;;;;;;;;;;;
2019/11/26 18:32:01;;;;;;;27.9;16.9;;;;;;;;;;;;;
2019/11/26 18:34:26;;;;;;;28.1;16.8;;;;;;;;;;;;;
2019/11/26 18:36:50;;;;;;;33.5;22.5;;;;;;;;;;;;;
2019/11/26 18:39:21;;;;;;;37.3;21.9;;;;;;;;;;;;;
2019/11/26 18:41:43;;;;;;;38.4;25;;;;;;;;;;;;;
2019/11/26 18:44:09;;;;;;;42.1;26.5;;;;;;;;;;;;;
2019/11/26 18:46:35;;;;;;;42.2;29.4;;;;;;;;;;;;;
2019/11/26 18:49:02;;;;;;;42.3;29.5;;;;;;;;;;;;;
2019/11/26 18:51:32;;;;;;;43.9;30.3;;;;;;;;;;;;;
2019/11/26 18:53:54;;;;;;;40.1;28.9;;;;;;;;;;;;;
2019/11/26 18:56:19;;;;;;;45.6;31.9;;;;;;;;;;;;;
2019/11/26 18:58:44;;;;;;;38.6;26.7;;;;;;;;;;;;;
2019/11/26 19:01:12;;;;;;;32.5;23.9;;;;;;;;;;;;;
2019/11/26 19:03:38;;;;;;;33;23.7;;;;;;;;;;;;;
2019/11/26 19:06:03;;;;;;;30.4;21.7;;;;;;;;;;;;;
2019/11/26 19:08:35;;;;;;;22.5;16.8;;;;;;;;;;;;;
2019/11/26 19:11:04;;;;;;;23.5;15.3;;;;;;;;;;;;;
2019/11/26 19:13:27;;;;;;;22;15.9;;;;;;;;;;;;;
2019/11/26 19:15:54;;;;;;;22.2;15;;;;;;;;;;;;;
2019/11/26 19:18:22;;;;;;;25.4;18.4;;;;;;;;;;;;;
2019/11/26 19:20:45;;;;;;;22.7;15.2;;;;;;;;;;;;;
2019/11/26 19:23:09;;;;;;;20.8;14.8;;;;;;;;;;;;;
2019/11/26 19:25:35;;;;;;;25.2;16.9;;;;;;;;;;;;;
2019/11/26 19:28:03;;;;;;;29.6;19.4;;;;;;;;;;;;;
2019/11/26 19:30:32;;;;;;;35.1;24.9;;;;;;;;;;;;;
2019/11/26 19:32:51;;;;;;;29.5;19.7;;;;;;;;;;;;;
2019/11/26 19:35:22;;;;;;;27.2;19.8;;;;;;;;;;;;;
2019/11/26 19:37:50;;;;;;;28.6;19.8;;;;;;;;;;;;;
2019/11/26 19:40:17;;;;;;;24.5;16.6;;;;;;;;;;;;;
2019/11/26 19:42:42;;;;;;;16.6;11.2;;;;;;;;;;;;;
2019/11/26 19:45:06;;;;;;;15.9;11.2;;;;;;;;;;;;;
2019/11/26 19:47:35;;;;;;;12.6;10.1;;;;;;;;;;;;;
2019/11/26 19:49:58;;;;;;;18.6;12.9;;;;;;;;;;;;;
2019/11/26 19:52:21;;;;;;;21.5;14.5;;;;;;;;;;;;;